地図

経路データ

SID SEASON NUMBER BASIN SUBBASIN NAME ISO_TIME NATURE LAT LON WMO_WIND WMO_PRES WMO_AGENCY TRACK_TYPE DIST2LAND LANDFALL IFLAG USA_AGENCY USA_ATCF_ID USA_LAT USA_LON USA_RECORD USA_STATUS USA_WIND USA_PRES USA_SSHS USA_R34_NE USA_R34_SE USA_R34_SW USA_R34_NW USA_R50_NE USA_R50_SE USA_R50_SW USA_R50_NW USA_R64_NE USA_R64_SE USA_R64_SW USA_R64_NW USA_POCI USA_ROCI USA_RMW USA_EYE TOKYO_LAT TOKYO_LON TOKYO_GRADE TOKYO_WIND TOKYO_PRES TOKYO_R50_DIR TOKYO_R50_LONG TOKYO_R50_SHORT TOKYO_R30_DIR TOKYO_R30_LONG TOKYO_R30_SHORT TOKYO_LAND CMA_LAT CMA_LON CMA_CAT CMA_WIND CMA_PRES HKO_LAT HKO_LON HKO_CAT HKO_WIND HKO_PRES NEWDELHI_LAT NEWDELHI_LON NEWDELHI_GRADE NEWDELHI_WIND NEWDELHI_PRES NEWDELHI_CI NEWDELHI_DP NEWDELHI_POCI REUNION_LAT REUNION_LON REUNION_TYPE REUNION_WIND REUNION_PRES REUNION_TNUM REUNION_CI REUNION_RMW REUNION_R34_NE REUNION_R34_SE REUNION_R34_SW REUNION_R34_NW REUNION_R50_NE REUNION_R50_SE REUNION_R50_SW REUNION_R50_NW REUNION_R64_NE REUNION_R64_SE REUNION_R64_SW REUNION_R64_NW BOM_LAT BOM_LON BOM_TYPE BOM_WIND BOM_PRES BOM_TNUM BOM_CI BOM_RMW BOM_R34_NE BOM_R34_SE BOM_R34_SW BOM_R34_NW BOM_R50_NE BOM_R50_SE BOM_R50_SW BOM_R50_NW BOM_R64_NE BOM_R64_SE BOM_R64_SW BOM_R64_NW BOM_ROCI BOM_POCI BOM_EYE BOM_POS_METHOD BOM_PRES_METHOD NADI_LAT NADI_LON NADI_CAT NADI_WIND NADI_PRES WELLINGTON_LAT WELLINGTON_LON WELLINGTON_WIND WELLINGTON_PRES DS824_LAT DS824_LON DS824_STAGE DS824_WIND DS824_PRES TD9636_LAT TD9636_LON TD9636_STAGE TD9636_WIND TD9636_PRES TD9635_LAT TD9635_LON TD9635_WIND TD9635_PRES TD9635_ROCI NEUMANN_LAT NEUMANN_LON NEUMANN_CLASS NEUMANN_WIND NEUMANN_PRES MLC_LAT MLC_LON MLC_CLASS MLC_WIND MLC_PRES USA_GUST BOM_GUST BOM_GUST_PER REUNION_GUST REUNION_GUST_PER USA_SEAHGT USA_SEARAD_NE USA_SEARAD_SE USA_SEARAD_SW USA_SEARAD_NW STORM_SPEED STORM_DIR
1938250N17127 1938 46 WP MM NOT_NAMED 1938-09-06 22:00:00 NR 17.2000 127.200 main 474 474 __________O___ -1 17.2000 127.200 7 6 59
1938250N17127 1938 46 WP MM NOT_NAMED 1938-09-07 00:00:00 NR 17.3090 127.388 main 496 496 __________P___ -1 17.3090 127.388 7 6 59
1938250N17127 1938 46 WP MM NOT_NAMED 1938-09-07 03:00:00 NR 17.4689 127.662 main 534 534 __________P___ -1 17.4689 127.662 7 6 58
1938250N17127 1938 46 WP MM NOT_NAMED 1938-09-07 06:00:00 NR 17.6202 127.915 main 557 557 __________P___ -1 17.6202 127.915 7 5 57
1938250N17127 1938 46 WP MM NOT_NAMED 1938-09-07 09:00:00 NR 17.7579 128.136 main 588 588 __________P___ -1 17.7579 128.136 7 5 57
1938250N17127 1938 46 WP MM NOT_NAMED 1938-09-07 10:00:00 NR 17.8000 128.200 main 595 595 __________O___ -1 17.8000 128.200 7 4 54
1938250N17127 1938 46 WP MM NOT_NAMED 1938-09-07 12:00:00 NR 17.8783 128.313 main 611 611 __________P___ -1 17.8783 128.313 7 4 52
1938250N17127 1938 46 WP MM NOT_NAMED 1938-09-07 15:00:00 NR 17.9895 128.456 main 634 634 __________P___ -1 17.9895 128.456 7 4 49
1938250N17127 1938 46 WP MM NOT_NAMED 1938-09-07 18:00:00 NR 18.1068 128.591 main 649 649 __________P___ -1 18.1068 128.591 7 4 47
1938250N17127 1938 46 WP MM NOT_NAMED 1938-09-07 21:00:00 NR 18.2460 128.742 main 664 680 __________P___ -1 18.2460 128.742 7 4 46
1938250N17127 1938 46 WP MM NOT_NAMED 1938-09-07 22:00:00 NR 18.3000 128.800 main 680 680 __________O___ -1 18.3000 128.800 7 5 47
1938250N17127 1938 46 WP MM NOT_NAMED 1938-09-08 00:00:00 NR 18.4272 128.944 main 695 703 __________P___ -1 18.4272 128.944 7 6 47
1938250N17127 1938 46 WP MM NOT_NAMED 1938-09-08 03:00:00 NR 18.6432 129.185 main 727 728 __________P___ -1 18.6432 129.185 7 7 46
1938250N17127 1938 46 WP MM NOT_NAMED 1938-09-08 06:00:00 NR 18.8783 129.445 main 750 760 __________P___ -1 18.8783 129.445 7 7 46
1938250N17127 1938 46 WP MM NOT_NAMED 1938-09-08 09:00:00 NR 19.1201 129.712 main 783 783 __________P___ -1 19.1201 129.712 7 7 46
1938250N17127 1938 46 WP MM NOT_NAMED 1938-09-08 10:00:00 NR 19.2000 129.800 main 794 794 __________O___ -1 19.2000 129.800 7 6 52
1938250N17127 1938 46 WP MM NOT_NAMED 1938-09-08 12:00:00 NR 19.2920 129.945 main 806 816 __________P___ -1 19.2920 129.945 7 5 56
1938250N17127 1938 46 WP MM NOT_NAMED 1938-09-08 15:00:00 NR 19.4288 130.161 main 838 838 __________P___ -1 19.4288 130.161 7 5 52
1938250N17127 1938 46 WP MM NOT_NAMED 1938-09-08 18:00:00 NR 19.6255 130.399 main 862 862 __________P___ -1 19.6255 130.399 7 7 44
1938250N17127 1938 46 WP MM NOT_NAMED 1938-09-08 21:00:00 NR 19.9510 130.688 main 899 899 __________P___ -1 19.9510 130.688 7 9 39
1938250N17127 1938 46 WP MM NOT_NAMED 1938-09-08 22:00:00 NR 20.1000 130.800 main 912 912 __________O___ -1 20.1000 130.800 7 13 33
1938250N17127 1938 46 WP MM NOT_NAMED 1938-09-09 00:00:00 NR 20.4992 131.064 main 951 951 __________P___ -1 20.4992 131.064 7 16 31
1938250N17127 1938 46 WP MM NOT_NAMED 1938-09-09 03:00:00 NR 21.2369 131.518 main 1011 1002 __________P___ -1 21.2369 131.518 7 18 29
1938250N17127 1938 46 WP MM NOT_NAMED 1938-09-09 06:00:00 NR 22.0715 132.016 main 1002 921 __________P___ -1 22.0715 132.016 7 19 29
1938250N17127 1938 46 WP MM NOT_NAMED 1938-09-09 09:00:00 NR 22.9248 132.530 main 921 893 __________P___ -1 22.9248 132.530 7 19 29
1938250N17127 1938 46 WP MM NOT_NAMED 1938-09-09 10:00:00 NR 23.2000 132.700 main 893 846 __________O___ -1 23.2000 132.700 7 19 30
1938250N17127 1938 46 WP MM NOT_NAMED 1938-09-09 12:00:00 NR 23.7242 133.032 main 846 776 __________P___ -1 23.7242 133.032 7 18 31
1938250N17127 1938 46 WP MM NOT_NAMED 1938-09-09 15:00:00 NR 24.4538 133.514 main 776 729 __________P___ -1 24.4538 133.514 7 17 32
1938250N17127 1938 46 WP MM NOT_NAMED 1938-09-09 18:00:00 NR 25.1341 133.982 main 733 683 __________P___ -1 25.1341 133.982 7 16 32
1938250N17127 1938 46 WP MM NOT_NAMED 1938-09-09 21:00:00 NR 25.7857 134.445 main 683 675 __________P___ -1 25.7857 134.445 7 15 33
1938250N17127 1938 46 WP MM NOT_NAMED 1938-09-09 22:00:00 NR 26.0000 134.600 main 675 __________O___ -1 26.0000 134.600 7 15 32

デジタル台風データ・検索

IBTrACS Databaseについて

本データベースは、米国NOAAが公開する1842年以降の世界の熱帯低気圧のベストトラックデータアーカイブInternational Best Track Archive for Climate Stewardship (IBTrACS)を、ウェブで閲覧しやすい形式に変換したものです。

最終更新日:2021-10-25